Time;durP1;ratioP1;P1;durP2;ratioP2;P2;SDS_P1;SDS_P2;PMS_P1;PMS_P2;Temp;Humidity;BMP_temperature;BMP_pressure;BME280_temperature;BME280_humidity;BME280_pressure;Samples;Min_cycle;Max_cycle;Signal;HPM_P1;HPM_P2
2021/10/13 00:01:38;;;;;;;3.70;3.40;;;11.00;99.90;;;;;;4899621;29;20052;-86
2021/10/13 00:04:24;;;;;;;2.80;2.60;;;10.80;99.90;;;;;;4899459;29;20069;-87
2021/10/13 00:07:11;;;;;;;4.07;3.78;;;10.80;99.90;;;;;;4914495;29;20171;-85
2021/10/13 00:09:38;;;;;;;2.80;2.60;;;10.90;99.90;;;;;;4900466;29;20127;-85
2021/10/13 00:14:51;;;;;;;3.47;3.17;;;10.60;99.90;;;;;;4843109;29;20056;-84
2021/10/13 00:17:18;;;;;;;3.00;2.80;;;10.50;99.90;;;;;;4845041;29;20417;-86
2021/10/13 00:19:46;;;;;;;2.80;2.60;;;10.50;99.90;;;;;;4860552;29;20052;-86
2021/10/13 00:22:28;;;;;;;2.90;2.70;;;10.50;99.90;;;;;;4860283;29;20041;-85
2021/10/13 00:24:56;;;;;;;3.05;2.85;;;10.50;99.90;;;;;;4844040;29;20041;-84
2021/10/13 00:27:52;;;;;;;2.90;2.70;;;10.50;99.90;;;;;;4857840;29;20451;-85
2021/10/13 00:30:20;;;;;;;3.80;3.50;;;10.60;99.90;;;;;;4859094;29;20042;-85
2021/10/13 00:32:50;;;;;;;2.80;2.60;;;10.50;99.90;;;;;;4844490;29;20434;-85
2021/10/13 00:36:31;;;;;;;2.80;2.60;;;10.60;99.90;;;;;;4845694;29;20498;-86
2021/10/13 00:39:00;;;;;;;3.00;2.80;;;10.50;99.90;;;;;;4843654;29;20046;-85
2021/10/13 00:41:34;;;;;;;3.97;3.67;;;10.50;99.90;;;;;;4844316;29;20053;-86
2021/10/13 00:44:16;;;;;;;2.83;2.63;;;10.70;99.90;;;;;;4860567;29;20467;-85
2021/10/13 00:47:00;;;;;;;2.80;2.60;;;10.70;99.90;;;;;;4862491;29;20080;-87
2021/10/13 00:49:39;;;;;;;2.90;2.70;;;10.70;99.90;;;;;;4847374;29;20072;-86
2021/10/13 00:52:07;;;;;;;2.80;2.60;;;10.70;99.90;;;;;;4862333;29;20053;-85
2021/10/13 00:54:55;;;;;;;3.00;2.80;;;10.70;99.90;;;;;;4862360;29;20055;-83
2021/10/13 00:57:23;;;;;;;2.90;2.70;;;10.60;99.90;;;;;;4880699;29;20493;-85
2021/10/13 01:01:02;;;;;;;6.57;4.05;;;10.60;99.90;;;;;;4896232;29;20112;-86
2021/10/13 01:04:24;;;;;;;4.63;4.05;;;10.60;99.90;;;;;;4840928;29;20053;-84
2021/10/13 01:07:29;;;;;;;3.90;3.60;;;10.40;99.90;;;;;;4833691;29;20070;-86
2021/10/13 01:17:10;;;;;;;2.90;2.70;;;10.40;99.90;;;;;;4916259;29;20047;-87
2021/10/13 01:19:46;;;;;;;3.45;3.15;;;10.40;99.90;;;;;;4883880;29;20140;-84
2021/10/13 01:22:36;;;;;;;2.90;2.70;;;10.40;99.90;;;;;;4884439;29;20076;-86
2021/10/13 01:25:24;;;;;;;3.10;2.90;;;10.20;99.90;;;;;;4899416;29;20110;-88
2021/10/13 01:28:11;;;;;;;3.10;2.90;;;10.40;99.90;;;;;;4916142;29;20048;-86
2021/10/13 01:30:53;;;;;;;2.95;2.75;;;10.30;99.90;;;;;;4900125;29;20425;-88
2021/10/13 01:33:47;;;;;;;3.00;2.80;;;10.30;99.90;;;;;;4884419;29;20060;-87
2021/10/13 01:36:19;;;;;;;3.00;2.80;;;10.30;99.90;;;;;;4877007;29;20135;-86
2021/10/13 01:38:51;;;;;;;7.85;3.70;;;10.40;99.90;;;;;;4883856;29;20056;-86
2021/10/13 01:42:03;;;;;;;3.20;3.00;;;10.30;99.90;;;;;;4842047;29;20075;-87
2021/10/13 01:44:33;;;;;;;3.13;2.92;;;10.30;99.90;;;;;;4860313;29;20515;-84
2021/10/13 01:47:01;;;;;;;4.07;3.73;;;10.10;99.90;;;;;;4860062;29;20056;-85
2021/10/13 01:49:46;;;;;;;3.22;3.03;;;10.10;99.90;;;;;;4860686;29;20057;-86
2021/10/13 01:52:18;;;;;;;3.60;3.30;;;9.90;99.90;;;;;;4876657;29;20053;-87
2021/10/13 01:54:47;;;;;;;4.07;3.78;;;10.00;99.90;;;;;;4861217;29;20127;-87
2021/10/13 01:57:35;;;;;;;3.00;2.80;;;10.10;99.90;;;;;;4878897;29;20236;-86
2021/10/13 02:00:26;;;;;;;3.55;3.25;;;10.10;99.90;;;;;;4879493;29;20045;-87
2021/10/13 02:02:55;;;;;;;3.00;2.80;;;10.00;99.90;;;;;;4863890;29;20427;-87
2021/10/13 02:05:24;;;;;;;2.90;2.70;;;10.00;99.90;;;;;;4897591;29;20057;-87
2021/10/13 02:07:54;;;;;;;3.30;3.00;;;10.00;99.90;;;;;;4883125;29;20053;-86
2021/10/13 02:10:24;;;;;;;3.20;3.00;;;10.10;99.90;;;;;;4898775;29;20090;-85
2021/10/13 02:17:23;;;;;;;2.90;2.70;;;10.20;99.90;;;;;;4897351;29;20052;-87
2021/10/13 02:19:52;;;;;;;3.10;2.90;;;10.10;99.90;;;;;;4900582;29;20072;-88
2021/10/13 02:22:20;;;;;;;3.10;2.90;;;10.20;99.90;;;;;;4915642;29;20080;-85
2021/10/13 02:25:13;;;;;;;3.00;2.80;;;10.30;99.90;;;;;;4886242;29;20066;-86
2021/10/13 02:27:54;;;;;;;3.10;2.90;;;10.30;99.90;;;;;;4900796;29;20052;-85
2021/10/13 02:30:21;;;;;;;;;;;10.30;99.90;;;;;;4915438;29;20063;-83
2021/10/13 02:32:49;;;;;;;2.90;2.70;;;10.30;99.90;;;;;;4886447;29;19971;-91
2021/10/13 02:35:19;;;;;;;3.20;3.00;;;10.10;99.90;;;;;;4915643;29;20065;-90
2021/10/13 02:37:48;;;;;;;3.10;2.90;;;10.10;99.90;;;;;;4887193;29;20080;-89
2021/10/13 02:40:45;;;;;;;3.10;2.90;;;10.00;99.90;;;;;;4899651;29;20068;-90
2021/10/13 02:43:37;;;;;;;3.00;2.80;;;10.00;99.90;;;;;;4883438;29;20496;-87
2021/10/13 02:46:26;;;;;;;3.47;3.20;;;10.00;99.90;;;;;;4901438;29;20044;-88
2021/10/13 02:49:17;;;;;;;3.50;3.20;;;10.00;99.90;;;;;;4899584;29;20120;-91
2021/10/13 02:52:12;;;;;;;3.10;2.90;;;9.90;99.90;;;;;;4898378;29;20383;-85
2021/10/13 02:54:59;;;;;;;4.25;3.47;;;9.90;99.90;;;;;;4883309;29;20501;-83
2021/10/13 02:57:38;;;;;;;3.05;2.85;;;9.80;99.90;;;;;;4863702;29;20501;-84
2021/10/13 03:00:24;;;;;;;3.28;3.03;;;9.70;99.90;;;;;;4885453;29;20060;-85
2021/10/13 03:03:16;;;;;;;3.10;2.90;;;9.70;99.90;;;;;;4882565;29;20050;-89
2021/10/13 03:05:50;;;;;;;3.13;2.92;;;9.80;99.90;;;;;;4868662;29;20052;-90
2021/10/13 03:08:21;;;;;;;3.22;3.00;;;9.80;99.90;;;;;;4880895;29;20049;-87
2021/10/13 03:10:55;;;;;;;3.10;2.90;;;9.70;99.90;;;;;;4899511;29;20048;-87
2021/10/13 03:13:29;;;;;;;3.10;2.90;;;9.70;99.90;;;;;;4880147;29;20051;-89
2021/10/13 03:16:49;;;;;;;3.10;2.90;;;9.70;99.90;;;;;;4843788;29;20058;-88
2021/10/13 03:19:36;;;;;;;3.10;2.90;;;9.70;99.90;;;;;;4881282;29;20041;-87
2021/10/13 03:22:08;;;;;;;4.38;3.97;;;9.70;99.90;;;;;;4900037;29;20050;-89
2021/10/13 03:24:36;;;;;;;3.50;3.20;;;9.70;99.90;;;;;;4882137;29;20053;-92
2021/10/13 03:27:03;;;;;;;3.80;3.50;;;9.60;99.90;;;;;;4880501;29;20128;-91
2021/10/13 03:29:31;;;;;;;5.93;5.43;;;9.60;99.90;;;;;;4865381;29;20072;-89
2021/10/13 03:31:58;;;;;;;3.40;3.10;;;9.60;99.90;;;;;;4868410;29;20052;-88
2021/10/13 03:34:26;;;;;;;3.40;3.10;;;9.60;99.90;;;;;;4880781;29;20061;-92
2021/10/13 03:37:02;;;;;;;3.50;3.20;;;9.50;99.90;;;;;;4883384;29;20044;-88
2021/10/13 03:39:29;;;;;;;5.15;4.75;;;9.50;99.90;;;;;;4894862;29;20049;-87
2021/10/13 03:42:00;;;;;;;3.50;3.20;;;9.50;99.90;;;;;;4891198;29;20434;-90
2021/10/13 03:44:29;;;;;;;3.40;3.10;;;9.50;99.90;;;;;;4883605;29;20056;-87
2021/10/13 03:46:57;;;;;;;3.47;3.17;;;9.60;99.90;;;;;;4901374;29;20080;-91
2021/10/13 03:53:38;;;;;;;3.20;3.00;;;9.30;99.90;;;;;;4918725;29;20047;-87
2021/10/13 04:03:43;;;;;;;3.40;3.10;;;9.40;99.90;;;;;;4916076;29;20055;-88
2021/10/13 04:06:10;;;;;;;3.58;3.28;;;9.50;99.90;;;;;;4897893;29;20474;-88
2021/10/13 04:08:53;;;;;;;3.20;3.00;;;9.40;99.90;;;;;;4915250;29;20040;-88
2021/10/13 04:11:20;;;;;;;3.40;3.10;;;9.40;99.90;;;;;;4898176;29;20080;-87
2021/10/13 04:14:15;;;;;;;3.17;2.97;;;9.40;99.90;;;;;;4900858;29;20426;-89
2021/10/13 04:17:08;;;;;;;3.53;3.22;;;9.40;99.90;;;;;;4876184;29;20048;-88
2021/10/13 04:19:35;;;;;;;4.53;4.18;;;9.50;99.90;;;;;;4882452;29;20092;-89
2021/10/13 04:22:03;;;;;;;5.22;4.82;;;9.40;99.90;;;;;;4898239;29;20072;-88
2021/10/13 04:24:30;;;;;;;4.38;4.07;;;9.20;99.90;;;;;;4897394;29;20041;-89
2021/10/13 04:27:10;;;;;;;5.28;4.88;;;9.20;99.90;;;;;;4881350;29;20507;-90
2021/10/13 04:29:37;;;;;;;3.53;3.22;;;9.20;99.90;;;;;;4898298;29;20052;-88
2021/10/13 04:32:11;;;;;;;5.55;3.85;;;9.10;99.90;;;;;;4897867;29;20083;-88
2021/10/13 04:34:58;;;;;;;9.05;4.78;;;9.00;99.90;;;;;;4883220;29;20052;-89
2021/10/13 04:37:32;;;;;;;3.50;3.20;;;9.00;99.90;;;;;;4888463;29;20060;-88
2021/10/13 04:40:03;;;;;;;3.83;3.53;;;9.00;99.90;;;;;;4897365;29;20044;-88
2021/10/13 04:45:58;;;;;;;3.50;3.20;;;9.10;99.90;;;;;;4900770;29;20503;-88
2021/10/13 05:03:25;;;;;;;5.53;4.40;;;9.10;99.90;;;;;;5379245;23;20095;-92
2021/10/13 05:05:52;;;;;;;4.03;3.70;;;9.20;99.90;;;;;;4919864;29;20040;-89
2021/10/13 05:08:20;;;;;;;6.30;4.95;;;9.40;99.90;;;;;;4915505;29;20044;-85
2021/10/13 05:10:47;;;;;;;3.90;3.60;;;9.40;99.90;;;;;;4918556;29;20365;-84
2021/10/13 05:13:17;;;;;;;6.03;5.57;;;9.40;99.90;;;;;;4900549;29;20044;-89
2021/10/13 05:15:44;;;;;;;5.15;4.65;;;9.70;99.90;;;;;;4901977;29;20123;-88
2021/10/13 05:18:12;;;;;;;9.63;6.82;;;9.80;99.90;;;;;;4914118;29;20044;-87
2021/10/13 05:20:40;;;;;;;3.67;3.38;;;9.80;99.90;;;;;;4900609;29;20365;-88
2021/10/13 05:23:07;;;;;;;3.10;2.90;;;9.80;99.90;;;;;;4914099;29;20131;-89
2021/10/13 05:25:35;;;;;;;3.75;3.45;;;9.80;99.90;;;;;;4889238;29;20060;-86
2021/10/13 05:28:03;;;;;;;3.50;3.20;;;9.80;99.90;;;;;;4914402;29;20066;-87
2021/10/13 05:30:30;;;;;;;4.25;3.85;;;9.80;99.90;;;;;;4913938;29;20051;-86
2021/10/13 05:41:10;;;;;;;3.00;2.80;;;10.20;99.90;;;;;;4936037;29;20108;-92
2021/10/13 05:57:03;;;;;;;3.83;3.53;;;10.10;99.90;;;;;;4900429;29;20040;-85
2021/10/13 06:02:23;;;;;;;4.63;4.25;;;10.50;99.90;;;;;;6025977;23;20059;-91
2021/10/13 06:04:50;;;;;;;3.30;3.10;;;10.30;99.90;;;;;;4844402;29;20385;-92
2021/10/13 06:07:17;;;;;;;3.85;3.55;;;10.20;99.90;;;;;;4878578;29;20048;-89
2021/10/13 06:09:45;;;;;;;3.70;3.40;;;10.10;99.90;;;;;;4861379;29;20505;-87
2021/10/13 06:12:13;;;;;;;3.15;2.95;;;10.10;99.90;;;;;;4862051;29;20033;-89
2021/10/13 06:14:49;;;;;;;3.72;3.42;;;10.20;99.90;;;;;;4877069;29;20049;-87
2021/10/13 06:17:16;;;;;;;3.10;2.90;;;10.20;99.90;;;;;;4877104;29;20490;-90
2021/10/13 06:19:44;;;;;;;3.10;2.90;;;10.20;99.90;;;;;;4862395;29;20041;-91
2021/10/13 06:22:11;;;;;;;4.47;3.88;;;10.20;99.90;;;;;;4877765;29;20045;-89
2021/10/13 06:24:39;;;;;;;3.53;3.22;;;10.30;99.90;;;;;;4878128;29;20053;-90
2021/10/13 06:27:07;;;;;;;3.00;2.80;;;10.30;99.90;;;;;;4863013;29;20045;-93
2021/10/13 06:29:34;;;;;;;3.20;2.97;;;10.30;99.90;;;;;;4879245;29;20124;-94
2021/10/13 06:32:03;;;;;;;3.33;3.05;;;10.40;99.90;;;;;;4878486;29;20047;-90
2021/10/13 06:34:30;;;;;;;4.18;3.88;;;10.40;99.90;;;;;;4878253;29;20388;-90
2021/10/13 06:36:58;;;;;;;2.90;2.70;;;10.40;99.90;;;;;;4878892;29;20099;-86
2021/10/13 06:40:01;;;;;;;3.10;2.90;;;10.40;99.90;;;;;;4878577;29;20038;-88
2021/10/13 06:42:29;;;;;;;4.00;3.67;;;10.50;99.90;;;;;;4863047;29;20045;-90
2021/10/13 06:45:45;;;;;;;3.20;3.00;;;10.50;99.90;;;;;;4863444;29;20082;-92
2021/10/13 06:48:12;;;;;;;2.90;2.70;;;10.60;99.90;;;;;;4846340;29;20462;-93
2021/10/13 06:50:39;;;;;;;3.17;2.95;;;10.50;99.90;;;;;;4863165;29;20053;-88
2021/10/13 06:53:13;;;;;;;3.00;2.80;;;10.50;99.90;;;;;;4880589;29;20057;-93
2021/10/13 06:55:42;;;;;;;3.72;3.42;;;10.70;99.90;;;;;;4867153;29;20135;-89
2021/10/13 06:58:10;;;;;;;2.90;2.70;;;10.90;99.90;;;;;;4898337;29;20525;-93
2021/10/13 07:00:37;;;;;;;2.92;2.72;;;11.00;99.90;;;;;;4882201;29;20055;-86
2021/10/13 07:03:05;;;;;;;4.22;3.92;;;11.00;99.90;;;;;;4884009;29;20139;-91
2021/10/13 07:05:34;;;;;;;3.08;2.88;;;11.10;99.90;;;;;;4884532;29;20135;-90
2021/10/13 07:08:02;;;;;;;4.38;3.97;;;11.10;99.90;;;;;;4878139;29;20049;-88
2021/10/13 07:10:29;;;;;;;3.00;2.80;;;10.80;99.90;;;;;;4863948;29;20053;-86
2021/10/13 07:12:57;;;;;;;2.70;2.50;;;10.90;99.90;;;;;;4879254;29;20063;-84
2021/10/13 07:15:24;;;;;;;4.20;3.78;;;11.10;99.90;;;;;;4879076;29;20130;-90
2021/10/13 07:17:51;;;;;;;2.70;2.50;;;11.40;99.90;;;;;;4847766;29;20037;-91
2021/10/13 07:20:19;;;;;;;3.13;2.92;;;11.50;99.90;;;;;;4863094;29;20163;-90
2021/10/13 07:22:48;;;;;;;2.70;2.50;;;11.70;99.90;;;;;;4891747;29;20040;-87
2021/10/13 07:25:20;;;;;;;3.13;2.92;;;11.80;99.90;;;;;;4882198;29;20504;-89
2021/10/13 07:27:51;;;;;;;2.97;2.78;;;11.80;99.90;;;;;;4881921;29;20523;-91
2021/10/13 07:30:23;;;;;;;3.10;2.90;;;11.80;99.90;;;;;;4897998;29;20057;-88
2021/10/13 07:32:53;;;;;;;4.15;3.83;;;11.60;99.90;;;;;;4898524;29;20056;-92
2021/10/13 07:35:30;;;;;;;3.05;2.83;;;11.70;99.90;;;;;;4901867;23;20151;-92
2021/10/13 07:38:01;;;;;;;3.15;2.95;;;11.60;99.90;;;;;;4901455;29;20048;-92
2021/10/13 07:40:37;;;;;;;;;;;11.80;99.90;;;;;;4902030;29;20032;-89
2021/10/13 07:43:04;;;;;;;2.50;2.30;;;11.90;99.90;;;;;;4901105;29;20002;-88
2021/10/13 07:45:42;;;;;;;2.63;2.42;;;12.10;99.90;;;;;;4885546;29;20047;-85
2021/10/13 07:48:10;;;;;;;2.60;2.40;;;12.20;99.90;;;;;;4885968;29;20044;-89
2021/10/13 07:50:38;;;;;;;3.38;3.17;;;12.30;99.90;;;;;;4901443;29;20429;-85
2021/10/13 07:53:05;;;;;;;3.10;2.90;;;12.30;99.90;;;;;;4898233;29;20040;-91
2021/10/13 07:55:35;;;;;;;5.07;2.97;;;12.70;99.90;;;;;;4883053;29;20100;-91
2021/10/13 07:58:03;;;;;;;8.00;3.60;;;13.00;99.90;;;;;;4884067;29;20044;-88
2021/10/13 08:00:30;;;;;;;3.15;2.95;;;13.10;99.90;;;;;;4868267;29;20314;-91
2021/10/13 08:02:57;;;;;;;2.88;2.67;;;13.20;99.90;;;;;;4867470;29;20041;-90
2021/10/13 08:05:25;;;;;;;2.55;2.35;;;13.10;99.90;;;;;;4884443;29;20056;-89
2021/10/13 08:07:52;;;;;;;3.35;3.10;;;13.30;99.90;;;;;;4884447;29;20051;-85
2021/10/13 08:10:20;;;;;;;3.95;3.65;;;13.40;99.90;;;;;;4868085;29;20060;-91
2021/10/13 08:12:47;;;;;;;2.85;2.65;;;13.40;99.90;;;;;;4883887;29;20059;-88
2021/10/13 08:15:16;;;;;;;3.15;2.95;;;13.50;99.90;;;;;;4883339;29;20049;-86
2021/10/13 08:17:43;;;;;;;3.10;2.90;;;13.40;99.90;;;;;;4868426;29;20397;-87
2021/10/13 08:20:11;;;;;;;2.72;2.53;;;13.40;99.90;;;;;;4880997;29;20056;-88
2021/10/13 08:22:39;;;;;;;2.40;2.20;;;13.40;99.90;;;;;;4881550;29;20405;-89
2021/10/13 08:25:08;;;;;;;2.17;2.03;;;13.50;99.90;;;;;;4883245;29;20108;-90
2021/10/13 08:27:35;;;;;;;2.60;2.40;;;13.30;99.90;;;;;;4882255;29;20045;-89
2021/10/13 08:30:04;;;;;;;2.95;2.75;;;13.20;99.90;;;;;;4866492;29;20555;-86
2021/10/13 08:32:34;;;;;;;2.40;2.20;;;12.90;99.90;;;;;;4883868;29;20041;-88
2021/10/13 08:35:04;;;;;;;2.70;2.50;;;12.90;99.90;;;;;;4882426;29;20690;-92
2021/10/13 08:37:34;;;;;;;2.83;2.63;;;12.70;99.90;;;;;;4867304;29;20378;-94
2021/10/13 08:40:03;;;;;;;3.03;2.83;;;12.70;99.90;;;;;;4881718;29;20064;-86
2021/10/13 08:42:30;;;;;;;2.20;2.05;;;12.80;99.90;;;;;;4882288;29;20055;-87
2021/10/13 08:44:58;;;;;;;2.50;2.30;;;13.00;99.90;;;;;;4882881;29;20511;-90
2021/10/13 08:47:29;;;;;;;2.40;2.20;;;13.10;99.90;;;;;;4882712;29;20045;-89
2021/10/13 08:49:57;;;;;;;2.55;2.35;;;13.00;99.90;;;;;;4866956;29;20392;-90
2021/10/13 08:52:30;;;;;;;2.40;2.20;;;13.20;99.90;;;;;;4867251;29;20187;-90
2021/10/13 08:54:57;;;;;;;2.13;2.03;;;13.40;99.90;;;;;;4867439;29;20431;-87
2021/10/13 08:57:26;;;;;;;2.40;2.20;;;13.40;99.90;;;;;;4899000;29;20045;-92
2021/10/13 08:59:56;;;;;;;2.60;2.40;;;13.50;99.90;;;;;;4867471;29;20049;-93
2021/10/13 09:02:36;;;;;;;2.60;2.40;;;13.60;99.90;;;;;;4882926;29;20051;-93
2021/10/13 09:05:16;;;;;;;2.60;2.33;;;13.60;99.90;;;;;;4868452;29;20526;-94
2021/10/13 09:07:53;;;;;;;2.58;2.38;;;13.70;99.90;;;;;;4884105;29;20056;-87
2021/10/13 09:10:33;;;;;;;2.47;2.28;;;13.90;99.90;;;;;;4870000;29;20057;-88
2021/10/13 09:13:02;;;;;;;;;;;14.00;99.90;;;;;;4885677;29;20048;-88
2021/10/13 09:15:31;;;;;;;4.22;3.90;;;13.80;99.90;;;;;;4897896;29;20184;-84
2021/10/13 09:18:24;;;;;;;2.10;2.00;;;14.00;99.90;;;;;;4881360;29;20075;-87
2021/10/13 09:20:53;;;;;;;2.88;2.67;;;14.10;99.90;;;;;;4881459;29;20056;-86
2021/10/13 09:23:22;;;;;;;2.03;1.92;;;14.00;99.90;;;;;;4897452;29;20080;-88
2021/10/13 09:26:10;;;;;;;2.58;2.38;;;14.00;99.90;;;;;;4881143;29;20056;-87
2021/10/13 09:28:41;;;;;;;2.25;2.10;;;14.00;99.90;;;;;;4895934;29;20456;-87
2021/10/13 09:31:18;;;;;;;2.28;2.10;;;14.10;99.90;;;;;;4880889;29;20071;-85
2021/10/13 09:34:01;;;;;;;3.08;2.75;;;14.30;99.90;;;;;;4897763;29;20052;-91
2021/10/13 09:36:35;;;;;;;2.00;1.90;;;14.50;99.90;;;;;;4866965;29;20040;-86
2021/10/13 09:39:14;;;;;;;2.45;2.20;;;14.20;99.90;;;;;;4867736;29;20124;-90
2021/10/13 09:42:08;;;;;;;2.90;2.70;;;14.20;99.90;;;;;;4898689;29;20043;-86
2021/10/13 09:44:35;;;;;;;2.00;1.90;;;14.30;99.90;;;;;;4880643;29;20053;-85
2021/10/13 09:47:11;;;;;;;4.85;4.40;;;14.50;99.90;;;;;;4880244;29;20067;-90
2021/10/13 09:49:51;;;;;;;2.00;1.90;;;14.70;99.90;;;;;;4882208;29;20123;-85
2021/10/13 09:52:26;;;;;;;3.55;2.45;;;14.90;99.90;;;;;;4880490;29;20405;-86
2021/10/13 09:55:20;;;;;;;3.53;3.25;;;15.10;99.90;;;;;;4866665;29;20505;-86
2021/10/13 09:57:49;;;;;;;1.90;1.80;;;15.10;99.90;;;;;;4896205;29;20060;-87
2021/10/13 10:00:22;;;;;;;3.70;3.30;;;14.90;99.90;;;;;;4897971;29;20048;-87
2021/10/13 10:02:53;;;;;;;3.03;2.83;;;14.80;99.90;;;;;;4897373;29;20396;-89
2021/10/13 10:06:14;;;;;;;1.80;1.70;;;14.80;99.90;;;;;;4865544;29;20057;-89
2021/10/13 10:13:11;;;;;;;1.90;1.80;;;14.60;99.90;;;;;;4898758;29;20512;-91
2021/10/13 10:16:30;;;;;;;1.85;1.75;;;14.90;99.90;;;;;;4897451;29;20056;-85
2021/10/13 10:19:21;;;;;;;1.90;1.80;;;15.00;99.90;;;;;;4880458;29;20048;-90
2021/10/13 10:21:54;;;;;;;3.05;2.45;;;14.90;99.20;;;;;;4880626;29;20051;-91
2021/10/13 10:24:33;;;;;;;2.00;1.90;;;14.60;99.40;;;;;;4866025;29;20044;-89
2021/10/13 10:27:27;;;;;;;2.58;2.38;;;14.60;99.90;;;;;;4884556;29;20087;-91
2021/10/13 10:30:44;;;;;;;2.20;2.00;;;14.00;98.90;;;;;;4884574;29;20072;-90
2021/10/13 10:36:40;;;;;;;1.80;1.70;;;14.00;99.70;;;;;;4881147;29;20057;-88
2021/10/13 10:39:58;;;;;;;2.17;2.08;;;14.40;99.20;;;;;;4865911;29;20083;-85
2021/10/13 10:42:58;;;;;;;1.90;1.80;;;14.60;98.40;;;;;;4882326;29;20052;-89
2021/10/13 10:45:31;;;;;;;2.95;2.75;;;14.70;97.00;;;;;;4867008;29;20393;-90
2021/10/13 10:48:36;;;;;;;1.80;1.70;;;14.70;97.10;;;;;;4888992;29;20056;-88
2021/10/13 10:51:04;;;;;;;1.98;1.88;;;14.80;98.60;;;;;;4885519;29;20132;-89
2021/10/13 10:54:33;;;;;;;1.80;1.70;;;14.80;99.00;;;;;;4882402;29;20076;-91
2021/10/13 10:57:00;;;;;;;2.22;2.10;;;14.70;97.60;;;;;;4877856;29;20040;-90
2021/10/13 10:59:53;;;;;;;1.88;1.77;;;14.60;97.90;;;;;;4900124;29;20385;-92
2021/10/13 11:02:27;;;;;;;2.03;1.92;;;14.70;97.40;;;;;;4870136;29;20059;-93
2021/10/13 11:05:12;;;;;;;1.90;1.80;;;14.40;97.00;;;;;;4869367;29;20469;-83
2021/10/13 11:07:42;;;;;;;2.00;1.90;;;14.90;99.90;;;;;;4883585;29;20401;-84
2021/10/13 11:10:11;;;;;;;2.88;2.67;;;15.20;99.40;;;;;;4900483;29;20493;-88
2021/10/13 11:12:50;;;;;;;2.20;2.08;;;15.30;97.10;;;;;;4866852;29;20044;-85
2021/10/13 11:15:21;;;;;;;2.40;2.20;;;15.40;99.40;;;;;;4881413;29;20489;-83
2021/10/13 11:17:50;;;;;;;1.60;1.50;;;15.30;98.60;;;;;;4898791;29;20407;-87
2021/10/13 11:20:23;;;;;;;2.08;1.95;;;15.40;98.00;;;;;;4867255;29;20083;-84
2021/10/13 11:23:02;;;;;;;2.35;2.15;;;15.60;99.90;;;;;;4899608;29;20052;-88
2021/10/13 11:25:31;;;;;;;2.60;2.40;;;15.80;99.30;;;;;;4899466;29;20067;-87
2021/10/13 11:28:01;;;;;;;3.78;3.47;;;15.80;98.20;;;;;;4883087;29;20143;-88
2021/10/13 11:30:35;;;;;;;1.90;1.80;;;15.90;98.60;;;;;;4883386;29;20052;-86
2021/10/13 11:33:07;;;;;;;1.70;1.60;;;16.00;97.70;;;;;;4891411;29;20048;-88
2021/10/13 11:35:36;;;;;;;1.80;1.70;;;15.90;97.90;;;;;;4911252;29;20405;-87
2021/10/13 11:38:05;;;;;;;1.63;1.52;;;15.70;97.10;;;;;;4899748;29;20068;-88
2021/10/13 11:40:34;;;;;;;3.10;2.80;;;15.40;95.20;;;;;;4900648;29;20067;-87
2021/10/13 11:43:11;;;;;;;1.70;1.60;;;15.40;97.60;;;;;;4917806;29;20131;-88
2021/10/13 11:45:50;;;;;;;1.70;1.60;;;15.50;97.30;;;;;;4901353;29;20058;-88
2021/10/13 11:48:36;;;;;;;1.70;1.60;;;15.50;97.20;;;;;;4900213;29;20048;-86
2021/10/13 11:51:10;;;;;;;1.80;1.70;;;15.40;96.40;;;;;;4901102;29;20393;-86
2021/10/13 11:53:38;;;;;;;1.85;1.75;;;15.50;97.80;;;;;;4901197;29;20056;-88
2021/10/13 11:56:13;;;;;;;1.60;1.50;;;15.60;96.50;;;;;;4901001;29;20040;-87
2021/10/13 11:58:43;;;;;;;1.88;1.77;;;15.70;97.00;;;;;;4900218;29;20079;-87
2021/10/13 12:01:15;;;;;;;1.90;1.80;;;15.70;97.50;;;;;;4900736;29;20048;-89
2021/10/13 12:03:47;;;;;;;2.03;1.92;;;15.60;97.00;;;;;;4884692;29;20048;-89
2021/10/13 12:06:15;;;;;;;1.70;1.60;;;15.50;96.80;;;;;;4884708;29;20040;-86
2021/10/13 12:08:42;;;;;;;1.80;1.70;;;15.40;97.20;;;;;;4900271;29;20044;-87
2021/10/13 12:11:42;;;;;;;2.88;2.25;;;15.30;96.90;;;;;;4859125;29;20146;-85
2021/10/13 12:14:11;;;;;;;2.55;2.40;;;15.30;97.30;;;;;;4858393;29;20069;-89
2021/10/13 12:16:59;;;;;;;1.60;1.50;;;15.30;97.20;;;;;;4843273;29;20498;-87
2021/10/13 12:19:43;;;;;;;2.10;2.00;;;15.20;96.90;;;;;;4829492;29;20061;-90
2021/10/13 12:22:10;;;;;;;1.95;1.85;;;15.10;96.40;;;;;;4858941;29;20482;-86
2021/10/13 12:24:37;;;;;;;1.90;1.80;;;15.30;97.00;;;;;;4858231;29;20441;-88
2021/10/13 12:27:08;;;;;;;3.45;3.15;;;15.40;97.40;;;;;;4858591;29;20158;-90
2021/10/13 12:29:52;;;;;;;1.92;1.83;;;15.30;96.20;;;;;;4858660;29;20053;-87
2021/10/13 12:32:22;;;;;;;7.32;2.35;;;15.40;96.00;;;;;;4828555;29;20060;-86
2021/10/13 12:34:50;;;;;;;4.07;2.72;;;15.30;95.20;;;;;;4842045;29;20418;-86
2021/10/13 12:37:33;;;;;;;4.13;3.08;;;15.20;95.30;;;;;;4856878;29;20064;-85
2021/10/13 12:40:26;;;;;;;1.88;1.77;;;15.60;95.60;;;;;;4828457;29;20056;-85
2021/10/13 12:43:14;;;;;;;1.73;1.63;;;15.90;95.80;;;;;;4841544;29;20057;-89
2021/10/13 12:45:41;;;;;;;2.33;2.13;;;15.60;94.60;;;;;;4843501;29;20052;-87
2021/10/13 12:48:14;;;;;;;1.77;1.67;;;15.40;94.20;;;;;;4846276;29;20048;-86
2021/10/13 12:51:06;;;;;;;1.70;1.60;;;15.70;94.90;;;;;;4866255;29;20409;-86
2021/10/13 12:53:34;;;;;;;2.25;2.13;;;16.00;94.10;;;;;;4880888;29;20052;-86
2021/10/13 12:56:02;;;;;;;1.73;1.63;;;16.00;94.00;;;;;;4865587;29;20053;-88
2021/10/13 12:58:36;;;;;;;1.73;1.63;;;15.90;93.90;;;;;;4881172;29;20161;-85
2021/10/13 13:01:06;;;;;;;2.75;2.53;;;16.00;93.20;;;;;;4896591;29;20053;-85
2021/10/13 13:03:34;;;;;;;2.72;2.53;;;16.20;93.10;;;;;;4865376;29;20059;-85
2021/10/13 13:06:15;;;;;;;2.13;2.03;;;16.20;93.00;;;;;;4881151;29;20051;-87
2021/10/13 13:08:42;;;;;;;2.60;2.40;;;15.90;92.50;;;;;;4897484;29;20465;-87
2021/10/13 13:11:35;;;;;;;2.08;1.92;;;15.70;93.10;;;;;;4880679;29;20409;-86
2021/10/13 13:14:08;;;;;;;1.80;1.70;;;15.60;93.30;;;;;;4896615;29;20052;-90
2021/10/13 13:16:48;;;;;;;2.13;2.00;;;15.70;93.40;;;;;;4865933;29;20417;-87
2021/10/13 13:19:17;;;;;;;2.30;2.10;;;15.30;93.30;;;;;;4880644;29;20390;-88
2021/10/13 13:22:18;;;;;;;2.58;2.38;;;15.20;93.90;;;;;;4880741;29;20048;-88
2021/10/13 13:29:19;;;;;;;1.80;1.70;;;14.90;94.50;;;;;;4875663;29;20049;-85
2021/10/13 13:31:47;;;;;;;1.90;1.80;;;14.90;95.20;;;;;;4881056;29;20060;-86
2021/10/13 13:34:15;;;;;;;2.70;2.50;;;14.80;95.10;;;;;;4896704;29;20127;-84
2021/10/13 13:36:44;;;;;;;3.00;2.78;;;14.90;95.10;;;;;;4865571;29;20074;-87
2021/10/13 13:39:25;;;;;;;2.00;1.90;;;14.90;95.50;;;;;;4866064;29;20405;-88
2021/10/13 13:41:52;;;;;;;2.58;2.38;;;15.00;95.60;;;;;;4865776;29;20314;-86
2021/10/13 13:44:20;;;;;;;2.10;2.00;;;15.00;95.40;;;;;;4865099;29;20131;-89
2021/10/13 13:46:48;;;;;;;3.05;2.80;;;15.10;95.80;;;;;;4866038;29;20067;-85
2021/10/13 13:49:16;;;;;;;1.88;1.77;;;15.10;94.90;;;;;;4898472;29;20055;-86
2021/10/13 13:51:43;;;;;;;3.53;3.22;;;15.20;94.70;;;;;;4882925;29;20420;-87
2021/10/13 13:54:12;;;;;;;1.90;1.80;;;15.20;95.00;;;;;;4883182;29;20437;-87
2021/10/13 13:56:40;;;;;;;1.90;1.80;;;15.30;95.30;;;;;;4883379;29;20131;-86
2021/10/13 13:59:07;;;;;;;1.80;1.70;;;15.20;95.00;;;;;;4915654;29;20140;-87
2021/10/13 14:01:35;;;;;;;1.90;1.80;;;15.10;94.80;;;;;;4902333;29;20051;-85
2021/10/13 14:04:03;;;;;;;2.47;2.28;;;14.80;95.00;;;;;;4919806;29;20055;-86
2021/10/13 14:06:30;;;;;;;2.10;2.00;;;14.70;95.30;;;;;;4902395;29;20397;-86
2021/10/13 14:08:58;;;;;;;1.90;1.80;;;14.80;96.20;;;;;;4887108;29;20048;-86
2021/10/13 14:11:25;;;;;;;2.28;2.10;;;14.80;96.00;;;;;;4887319;29;20055;-86
2021/10/13 14:13:53;;;;;;;2.00;1.90;;;14.60;95.80;;;;;;4902481;29;20036;-88
2021/10/13 14:16:20;;;;;;;2.53;2.33;;;14.50;95.80;;;;;;4886986;29;20052;-87
2021/10/13 14:19:27;;;;;;;2.10;2.00;;;14.50;96.10;;;;;;4849859;29;20091;-88
2021/10/13 14:22:15;;;;;;;2.67;2.47;;;14.40;96.50;;;;;;4873421;29;20048;-87
2021/10/13 14:24:43;;;;;;;2.40;2.20;;;14.50;96.60;;;;;;4902337;29;20052;-91
2021/10/13 14:27:14;;;;;;;1.95;1.85;;;14.60;97.10;;;;;;4887907;29;20068;-87
2021/10/13 14:29:41;;;;;;;;;;;14.60;97.20;;;;;;4887983;29;20055;-89
2021/10/13 14:32:10;;;;;;;2.20;2.10;;;14.50;96.60;;;;;;4903094;29;20282;-90
2021/10/13 14:34:38;;;;;;;2.25;2.08;;;14.60;96.80;;;;;;4887213;29;20078;-91
2021/10/13 14:37:16;;;;;;;2.10;2.00;;;14.60;97.50;;;;;;4902968;29;20433;-92
2021/10/13 14:40:15;;;;;;;2.30;2.10;;;14.60;97.00;;;;;;4902745;29;20035;-89
2021/10/13 14:42:42;;;;;;;1.95;1.85;;;14.70;97.10;;;;;;4919344;29;20052;-90
2021/10/13 14:45:38;;;;;;;2.13;2.03;;;14.70;96.90;;;;;;4902821;29;20043;-88
2021/10/13 14:48:10;;;;;;;1.90;1.80;;;14.70;96.90;;;;;;4874533;29;20109;-89
2021/10/13 14:50:41;;;;;;;2.20;2.05;;;14.70;97.00;;;;;;4865418;29;20056;-90
2021/10/13 14:57:22;;;;;;;2.55;2.35;;;14.50;97.30;;;;;;4881520;29;20105;-89
2021/10/13 15:05:48;;;;;;;2.13;2.03;;;14.50;99.20;;;;;;4948441;23;20115;-92